Time;durP1;ratioP1;P1;durP2;ratioP2;P2;SDS_P1;SDS_P2;PMS_P1;PMS_P2;Temp;Humidity;BMP_temperature;BMP_pressure;BME280_temperature;BME280_humidity;BME280_pressure;Samples;Min_cycle;Max_cycle;Signal;HPM_P1;HPM_P2
2023/10/06 00:00:47;;;;;;;0.90;0.63;;;;;;;28.61;39.70;101362.69;5029288;28;21446;-81
2023/10/06 00:03:16;;;;;;;4.72;0.80;;;;;;;28.58;39.93;101360.13;5029596;28;20137;-81
2023/10/06 00:05:48;;;;;;;1.90;1.00;;;;;;;28.53;39.42;101359.44;5027831;28;20065;-80
2023/10/06 00:08:19;;;;;;;;;;;;;;;28.50;39.19;101365.75;5027210;28;20049;-80
2023/10/06 00:10:51;;;;;;;1.47;1.00;;;;;;;28.45;39.59;101364.13;5027612;28;19948;-82
2023/10/06 00:13:23;;;;;;;;;;;;;;;28.39;40.06;101357.25;5029418;28;20745;-81
2023/10/06 00:15:55;;;;;;;2.30;1.20;;;;;;;28.33;39.99;101352.13;5027753;28;20028;-79
2023/10/06 00:18:23;;;;;;;3.27;0.83;;;;;;;28.26;40.31;101358.59;5030907;28;20045;-80
2023/10/06 00:20:56;;;;;;;4.43;0.93;;;;;;;28.22;40.97;101349.81;5023419;28;20353;-81
2023/10/06 00:23:27;;;;;;;3.10;1.23;;;;;;;28.15;41.74;101346.53;5027506;28;20041;-81
2023/10/06 00:25:56;;;;;;;5.23;0.90;;;;;;;28.06;41.08;101344.19;5031698;28;20050;-79
2023/10/06 00:28:26;;;;;;;1.98;1.15;;;;;;;27.98;41.11;101340.91;5028674;28;20045;-81
2023/10/06 00:31:05;;;;;;;4.20;1.00;;;;;;;27.90;41.59;101341.19;5026628;28;20109;-80
2023/10/06 00:33:37;;;;;;;2.45;0.90;;;;;;;27.82;41.93;101335.22;5025897;28;20456;-81
2023/10/06 00:36:11;;;;;;;4.03;1.08;;;;;;;27.74;42.27;101332.81;5023985;28;20445;-81
2023/10/06 00:38:40;;;;;;;3.90;1.05;;;;;;;27.66;42.62;101331.31;5027436;28;20053;-80
2023/10/06 00:41:08;;;;;;;2.45;1.02;;;;;;;27.56;43.07;101322.78;5025727;28;20045;-81
2023/10/06 00:43:39;;;;;;;2.97;1.00;;;;;;;27.47;42.22;101321.28;5026129;28;20053;-79
2023/10/06 00:46:15;;;;;;;1.55;1.10;;;;;;;27.39;42.27;101320.66;5025367;28;20049;-79
2023/10/06 00:48:52;;;;;;;1.88;1.00;;;;;;;27.32;42.88;101314.66;5027406;28;20069;-80
2023/10/06 00:51:22;;;;;;;1.65;1.27;;;;;;;27.25;43.09;101318.41;5020357;28;20499;-81
2023/10/06 00:53:52;;;;;;;2.30;1.52;;;;;;;27.16;43.44;101316.88;5021383;28;20066;-81
2023/10/06 00:56:23;;;;;;;3.45;1.58;;;;;;;27.08;42.88;101321.56;5026789;28;20060;-79
2023/10/06 00:58:51;;;;;;;3.50;1.50;;;;;;;27.01;43.39;101313.81;5028455;28;20045;-80
2023/10/06 01:01:22;;;;;;;4.78;1.70;;;;;;;26.94;43.42;101310.50;5024584;28;20527;-78
2023/10/06 01:04:00;;;;;;;4.95;1.40;;;;;;;26.88;44.15;101324.81;5025850;28;20479;-78
2023/10/06 01:06:33;;;;;;;3.65;1.60;;;;;;;26.78;44.34;101307.44;5024448;28;20414;-77
2023/10/06 01:09:12;;;;;;;2.58;1.27;;;;;;;26.69;44.39;101313.88;5023261;28;20053;-79
2023/10/06 01:11:46;;;;;;;2.97;1.23;;;;;;;26.63;44.47;101318.47;5023605;28;20072;-78
2023/10/06 01:14:21;;;;;;;3.10;1.50;;;;;;;26.52;45.22;101314.28;5026585;28;20045;-79
2023/10/06 01:16:53;;;;;;;2.97;1.00;;;;;;;26.43;45.34;101321.66;5025748;28;20046;-82
2023/10/06 01:19:27;;;;;;;5.20;1.17;;;;;;;26.32;46.23;101314.00;5019793;28;20188;-79
2023/10/06 01:21:57;;;;;;;2.90;1.20;;;;;;;26.21;45.62;101306.31;5016668;28;20077;-79
2023/10/06 01:24:28;;;;;;;2.30;1.00;;;;;;;26.12;45.26;101312.75;5019818;28;20053;-79
2023/10/06 01:27:05;;;;;;;2.85;1.30;;;;;;;26.05;45.92;101308.50;5022265;28;20046;-79
2023/10/06 01:29:35;;;;;;;3.03;0.70;;;;;;;25.99;45.98;101313.97;5013409;28;20054;-82
2023/10/06 01:32:05;;;;;;;1.73;1.00;;;;;;;25.92;46.08;101315.03;5024924;28;20066;-80
2023/10/06 01:34:38;;;;;;;2.03;1.13;;;;;;;25.86;46.12;101315.16;5019123;28;20052;-79
2023/10/06 01:37:07;;;;;;;1.48;0.85;;;;;;;25.77;46.28;101305.69;5024278;28;20115;-77
2023/10/06 01:39:38;;;;;;;2.47;0.80;;;;;;;25.70;46.80;101315.56;5023936;28;20116;-78
2023/10/06 01:42:09;;;;;;;4.13;0.88;;;;;;;25.63;46.39;101308.66;5018454;28;20401;-79
2023/10/06 01:44:38;;;;;;;1.42;0.88;;;;;;;25.58;46.45;101315.84;5024395;28;20042;-79
2023/10/06 01:47:06;;;;;;;1.60;0.90;;;;;;;25.53;46.70;101315.06;5023159;28;20045;-80
2023/10/06 01:49:36;;;;;;;2.88;0.80;;;;;;;25.45;46.97;101301.16;5029216;28;20080;-79
2023/10/06 01:52:05;;;;;;;1.00;0.90;;;;;;;25.42;47.88;101317.09;5019649;28;20068;-78
2023/10/06 01:54:36;;;;;;;2.35;1.27;;;;;;;25.38;47.63;101315.44;5015005;28;20133;-80
2023/10/06 01:57:10;;;;;;;3.20;1.38;;;;;;;25.33;48.49;101320.84;5020045;28;20057;-78
2023/10/06 01:59:38;;;;;;;3.45;1.40;;;;;;;25.27;48.05;101315.69;5021956;28;20076;-77
2023/10/06 02:02:13;;;;;;;2.20;1.17;;;;;;;25.22;48.53;101315.81;5022568;28;20049;-79
2023/10/06 02:04:45;;;;;;;4.47;1.30;;;;;;;25.16;49.03;101318.53;5028090;28;20117;-79
2023/10/06 02:07:12;;;;;;;;;;;;;;;25.13;48.61;101315.97;5024799;28;20126;-78
2023/10/06 02:09:43;;;;;;;2.05;0.80;;;;;;;25.01;49.45;101309.16;5025094;28;19933;-80
2023/10/06 02:12:12;;;;;;;3.95;0.98;;;;;;;25.03;49.43;101317.94;5020228;28;20675;-79
2023/10/06 02:14:41;;;;;;;1.60;0.82;;;;;;;24.97;49.39;101322.47;5021315;28;20049;-77
2023/10/06 02:17:13;;;;;;;1.42;0.80;;;;;;;24.92;49.06;101324.34;5014938;28;20109;-79
2023/10/06 02:19:43;;;;;;;1.27;0.90;;;;;;;24.89;49.36;101327.94;5017992;28;20145;-78
2023/10/06 02:22:12;;;;;;;1.02;0.80;;;;;;;24.84;48.84;101317.47;5009745;28;20091;-78
2023/10/06 02:24:43;;;;;;;1.00;0.77;;;;;;;24.81;49.23;101327.25;5019435;28;20663;-78
2023/10/06 02:27:15;;;;;;;5.35;0.90;;;;;;;24.76;49.47;101324.69;5024016;28;20056;-78
2023/10/06 02:29:44;;;;;;;4.15;0.90;;;;;;;24.74;50.01;101323.84;5018910;28;20057;-78
2023/10/06 02:32:35;;;;;;;2.55;0.88;;;;;;;24.69;49.75;101327.47;5004011;28;20076;-77
2023/10/06 02:35:06;;;;;;;2.08;0.90;;;;;;;24.66;50.31;101333.72;5009627;28;20060;-75
2023/10/06 02:37:34;;;;;;;1.42;0.90;;;;;;;24.63;50.11;101328.50;5011978;28;20046;-76
2023/10/06 02:40:11;;;;;;;1.50;0.80;;;;;;;24.61;50.56;101335.59;4998903;28;20407;-76
2023/10/06 02:42:47;;;;;;;1.25;0.82;;;;;;;24.57;50.49;101328.59;4999546;28;20089;-76
2023/10/06 02:45:20;;;;;;;1.17;0.80;;;;;;;24.51;49.31;101329.59;4993957;28;20544;-77
2023/10/06 02:54:50;;;;;;;0.88;0.70;;;;;;;24.42;49.11;101350.91;4943768;29;20571;-83
2023/10/06 02:57:20;;;;;;;1.42;0.80;;;;;;;24.40;50.52;101348.28;5003817;28;20065;-77
2023/10/06 02:59:49;;;;;;;3.35;0.80;;;;;;;24.37;50.00;101353.63;5008458;28;20045;-77
2023/10/06 03:02:20;;;;;;;3.38;0.90;;;;;;;24.34;50.42;101352.81;5014160;28;20288;-79
2023/10/06 03:04:55;;;;;;;2.70;0.60;;;;;;;24.32;50.43;101355.47;5019166;28;20460;-77
2023/10/06 03:07:25;;;;;;;3.80;0.93;;;;;;;24.30;50.67;101353.75;5017393;28;20563;-77
2023/10/06 03:09:53;;;;;;;1.15;0.68;;;;;;;24.27;50.97;101352.03;5016909;28;20103;-75
2023/10/06 03:12:31;;;;;;;4.78;1.00;;;;;;;24.23;50.80;101355.63;5016452;28;20049;-77
2023/10/06 03:15:01;;;;;;;2.42;1.00;;;;;;;24.23;50.96;101358.28;5027161;28;20136;-82
2023/10/06 03:17:30;;;;;;;3.45;0.70;;;;;;;24.19;49.95;101353.94;5015627;28;20099;-81
2023/10/06 03:20:09;;;;;;;3.88;0.90;;;;;;;24.17;50.10;101353.97;5015357;28;20042;-78
2023/10/06 03:22:40;;;;;;;3.40;0.90;;;;;;;24.16;50.62;101354.00;5017229;28;20042;-79
2023/10/06 03:25:16;;;;;;;4.72;1.00;;;;;;;24.13;50.32;101349.66;5019559;28;20048;-81
2023/10/06 03:27:49;;;;;;;1.55;1.02;;;;;;;24.10;50.42;101354.09;5022497;28;20057;-82
2023/10/06 03:30:26;;;;;;;1.10;0.93;;;;;;;24.08;50.27;101355.91;5035116;28;20045;-82
2023/10/06 03:32:57;;;;;;;2.90;1.20;;;;;;;24.03;50.21;101345.44;4983727;28;20062;-82
2023/10/06 03:35:35;;;;;;;4.15;0.80;;;;;;;24.00;49.84;101346.31;4980448;28;20149;-79
2023/10/06 03:38:27;;;;;;;4.68;1.13;;;;;;;24.02;50.43;101346.31;4986249;28;21021;-78
2023/10/06 03:41:09;;;;;;;4.40;1.00;;;;;;;24.01;49.47;101349.88;4984731;28;20058;-79
2023/10/06 03:43:49;;;;;;;1.40;0.68;;;;;;;23.99;49.72;101347.22;4986518;28;20133;-78
2023/10/06 03:46:20;;;;;;;2.10;0.80;;;;;;;23.97;49.20;101354.31;4977870;28;20054;-79
2023/10/06 03:48:50;;;;;;;1.38;0.70;;;;;;;23.96;49.37;101347.28;4991996;28;20054;-78
2023/10/06 03:51:18;;;;;;;2.28;0.90;;;;;;;23.93;49.70;101342.03;4985054;28;20105;-78
2023/10/06 03:53:48;;;;;;;0.85;0.73;;;;;;;23.83;49.37;101338.69;4988681;28;20046;-78
2023/10/06 03:56:17;;;;;;;1.45;0.80;;;;;;;23.87;49.02;101339.53;4978369;28;20046;-79
2023/10/06 03:58:48;;;;;;;1.58;1.00;;;;;;;23.88;49.31;101348.31;4981455;28;20508;-79
2023/10/06 04:01:20;;;;;;;1.20;0.80;;;;;;;23.82;49.54;101346.63;4981395;28;20043;-78
2023/10/06 04:03:49;;;;;;;2.10;1.00;;;;;;;23.80;49.07;101361.63;4985261;28;20056;-78
2023/10/06 04:06:17;;;;;;;1.98;1.00;;;;;;;23.77;49.46;101359.91;4985211;28;20547;-78
2023/10/06 04:08:46;;;;;;;4.40;0.88;;;;;;;23.75;50.02;101366.13;4983638;28;20043;-79
2023/10/06 04:11:15;;;;;;;1.58;0.80;;;;;;;23.71;49.37;101367.91;4989610;28;20062;-79
2023/10/06 04:13:44;;;;;;;3.83;0.88;;;;;;;23.68;49.24;101367.94;4985758;28;20074;-79
2023/10/06 04:16:15;;;;;;;3.90;1.00;;;;;;;23.65;49.33;101362.72;4990911;28;20058;-79
2023/10/06 04:18:47;;;;;;;1.17;1.00;;;;;;;23.61;49.80;101363.66;4984580;28;20176;-77
2023/10/06 04:21:16;;;;;;;1.08;0.75;;;;;;;23.57;50.18;101369.88;4990403;28;20078;-77
2023/10/06 04:23:45;;;;;;;3.35;0.82;;;;;;;23.48;50.60;101368.25;4989992;28;20073;-78
2023/10/06 04:29:39;;;;;;;7.07;1.38;;;;;;;23.23;51.58;101353.63;4988229;28;20053;-79
2023/10/06 04:32:25;;;;;;;4.80;1.08;;;;;;;23.23;51.00;101369.47;4997653;28;20050;-77
2023/10/06 04:34:54;;;;;;;2.15;0.70;;;;;;;23.15;52.31;101370.44;4999358;28;20046;-78
2023/10/06 04:37:24;;;;;;;1.52;0.80;;;;;;;23.11;51.82;101375.78;5009355;28;20100;-77
2023/10/06 04:39:52;;;;;;;2.03;0.85;;;;;;;23.06;51.75;101370.56;5180485;23;20061;-79
2023/10/06 04:42:33;;;;;;;;;;;;;;;;;;;;;
2023/10/06 04:45:12;;;;;;;3.45;0.75;;;;;;;22.91;51.92;101378.66;4964768;28;20096;-79
2023/10/06 04:47:43;;;;;;;2.70;0.90;;;;;;;22.85;52.07;101376.06;4965945;28;20401;-80
2023/10/06 04:50:12;;;;;;;1.70;0.80;;;;;;;22.77;53.25;101377.03;4969510;28;20055;-80
2023/10/06 04:52:44;;;;;;;2.22;0.63;;;;;;;22.72;52.98;101383.25;4959490;28;20158;-80
2023/10/06 04:55:13;;;;;;;2.55;0.90;;;;;;;22.63;54.62;101383.34;4966734;28;20492;-81
2023/10/06 04:57:51;;;;;;;3.83;0.90;;;;;;;22.55;53.15;101381.66;4966053;28;20047;-80
2023/10/06 05:00:22;;;;;;;2.35;0.70;;;;;;;22.50;54.58;101385.25;4966826;28;20412;-81
2023/10/06 05:02:52;;;;;;;2.78;0.90;;;;;;;22.45;52.58;101380.00;4967746;28;20050;-79
2023/10/06 05:05:31;;;;;;;1.10;0.70;;;;;;;22.47;52.08;101394.06;4965170;28;20142;-77
2023/10/06 05:08:02;;;;;;;1.60;1.00;;;;;;;22.48;51.95;101384.38;4965542;28;20136;-78
2023/10/06 05:10:31;;;;;;;2.05;0.80;;;;;;;22.48;51.51;101382.63;4974266;28;20051;-76
2023/10/06 05:13:06;;;;;;;2.42;0.70;;;;;;;22.49;51.29;101380.84;4970300;28;20110;-77
2023/10/06 05:15:34;;;;;;;2.55;0.93;;;;;;;22.49;51.65;101386.13;4966896;28;20081;-77
2023/10/06 05:18:06;;;;;;;1.67;0.73;;;;;;;22.47;51.04;101380.88;4972363;28;20109;-77
2023/10/06 05:20:35;;;;;;;3.60;0.90;;;;;;;22.49;51.04;101380.84;4965814;28;20543;-77
2023/10/06 05:23:07;;;;;;;0.88;0.55;;;;;;;22.48;51.24;101379.09;4966610;28;20057;-76
2023/10/06 05:25:35;;;;;;;1.03;0.60;;;;;;;22.47;50.80;101393.16;4968077;28;20112;-75
2023/10/06 05:28:05;;;;;;;1.98;0.60;;;;;;;22.46;50.58;101389.66;4966949;28;20055;-76
2023/10/06 05:30:33;;;;;;;1.08;0.65;;;;;;;22.45;50.72;101389.66;4968388;28;20051;-77
2023/10/06 05:33:03;;;;;;;3.63;0.80;;;;;;;22.42;50.76;101401.13;4966059;28;20054;-77
2023/10/06 05:35:38;;;;;;;3.20;0.95;;;;;;;22.37;50.54;101402.94;4968555;28;20143;-77
2023/10/06 05:38:08;;;;;;;2.17;0.68;;;;;;;22.27;51.52;101385.47;4974709;28;20158;-77
2023/10/06 05:40:37;;;;;;;0.70;0.40;;;;;;;22.21;50.73;101386.38;4967700;28;20127;-78
2023/10/06 05:43:05;;;;;;;2.75;0.70;;;;;;;22.18;51.29;101394.28;4966167;28;20058;-76
2023/10/06 05:45:39;;;;;;;2.38;0.70;;;;;;;22.11;51.29;101395.22;4968524;28;20174;-78
2023/10/06 05:48:10;;;;;;;0.68;0.50;;;;;;;22.06;51.51;101390.00;4967392;28;20061;-76
2023/10/06 05:50:41;;;;;;;1.27;0.68;;;;;;;22.02;51.95;101401.44;4964612;28;20134;-77
2023/10/06 05:53:12;;;;;;;4.57;0.80;;;;;;;21.94;51.79;101385.69;4963315;28;20138;-77
2023/10/06 05:55:42;;;;;;;2.58;0.70;;;;;;;21.91;51.84;101393.59;4965656;28;20085;-78
2023/10/06 05:58:14;;;;;;;1.25;0.60;;;;;;;21.88;51.86;101392.78;4964948;28;20133;-79
2023/10/06 06:00:50;;;;;;;4.55;0.70;;;;;;;21.86;51.56;101398.03;4963216;28;20055;-79
2023/10/06 06:03:20;;;;;;;1.52;0.50;;;;;;;21.83;52.01;101400.72;4959515;28;20125;-78
2023/10/06 06:05:52;;;;;;;0.95;0.55;;;;;;;21.80;51.54;101410.38;4967585;28;20051;-79
2023/10/06 06:08:21;;;;;;;4.00;0.50;;;;;;;21.78;52.36;101407.75;4966849;28;20042;-78
2023/10/06 06:10:50;;;;;;;3.42;0.65;;;;;;;21.74;51.80;101406.03;4964248;28;20047;-78
2023/10/06 06:13:18;;;;;;;0.90;0.60;;;;;;;21.71;52.68;101403.41;4966239;28;20074;-78
2023/10/06 06:15:48;;;;;;;2.35;0.88;;;;;;;21.67;54.57;101405.19;4967555;28;20065;-77
2023/10/06 06:18:17;;;;;;;3.15;0.60;;;;;;;21.64;53.87;101393.78;4963158;28;20495;-77
2023/10/06 06:20:45;;;;;;;2.10;0.60;;;;;;;21.63;52.80;101392.06;4966931;28;20504;-79
2023/10/06 06:23:20;;;;;;;1.13;0.77;;;;;;;21.63;52.61;101386.78;4959932;28;20700;-78
2023/10/06 06:25:48;;;;;;;2.13;0.80;;;;;;;21.65;52.39;101385.88;4964248;28;20134;-78
2023/10/06 06:28:17;;;;;;;0.93;0.50;;;;;;;21.67;52.68;101383.22;4962819;28;20057;-80
2023/10/06 06:30:47;;;;;;;1.13;0.88;;;;;;;21.66;52.64;101376.22;4955332;28;20057;-77
2023/10/06 06:33:17;;;;;;;3.08;0.60;;;;;;;21.68;52.33;101382.34;4969454;28;20050;-79
2023/10/06 06:35:49;;;;;;;2.38;0.65;;;;;;;21.68;52.74;101372.69;4970638;28;20057;-77
2023/10/06 06:38:19;;;;;;;0.80;0.50;;;;;;;21.68;52.36;101377.97;4965634;28;20139;-78
2023/10/06 06:40:48;;;;;;;2.33;0.70;;;;;;;21.67;52.19;101370.06;4966993;28;20055;-78
2023/10/06 06:43:19;;;;;;;2.25;0.60;;;;;;;21.65;52.56;101374.50;4968744;28;20050;-79
2023/10/06 06:45:49;;;;;;;4.72;0.85;;;;;;;21.65;52.45;101375.34;4966684;28;20089;-77
2023/10/06 06:48:19;;;;;;;2.78;0.80;;;;;;;21.63;52.81;101369.22;4960494;28;20536;-79
2023/10/06 06:50:49;;;;;;;1.83;0.70;;;;;;;21.62;52.88;101369.22;4965107;28;20098;-79
2023/10/06 06:53:19;;;;;;;2.25;0.68;;;;;;;21.61;52.49;101373.63;4959480;28;20076;-79
2023/10/06 06:55:48;;;;;;;2.00;0.80;;;;;;;21.58;52.65;101367.47;4966729;28;20061;-80
2023/10/06 06:58:17;;;;;;;1.27;0.90;;;;;;;21.56;53.00;101366.66;4960909;28;20055;-79
2023/10/06 07:00:48;;;;;;;0.77;0.52;;;;;;;21.53;52.91;101371.03;4960503;28;20055;-78
2023/10/06 07:03:16;;;;;;;3.00;0.80;;;;;;;21.51;52.71;101371.94;4964878;28;20539;-78
2023/10/06 07:05:46;;;;;;;2.45;0.80;;;;;;;21.47;53.47;101368.44;4964630;28;20057;-79
2023/10/06 07:08:15;;;;;;;2.17;0.65;;;;;;;21.46;53.76;101371.06;4969386;28;20050;-78
2023/10/06 07:10:52;;;;;;;3.53;0.70;;;;;;;21.41;53.19;101364.97;4966007;28;20059;-79
2023/10/06 07:13:22;;;;;;;2.50;0.80;;;;;;;21.37;53.78;101364.06;4969723;28;20043;-78
2023/10/06 07:15:51;;;;;;;1.95;0.80;;;;;;;21.34;53.64;101371.97;4962745;28;20077;-78
2023/10/06 07:18:22;;;;;;;3.70;1.15;;;;;;;21.28;54.11;101362.38;4971098;28;20070;-80
2023/10/06 07:20:50;;;;;;;2.63;0.70;;;;;;;21.26;54.29;101371.16;4964250;28;20147;-79
2023/10/06 07:23:26;;;;;;;2.15;0.70;;;;;;;21.22;54.49;101370.28;4971059;28;20097;-79
2023/10/06 07:26:03;;;;;;;3.50;0.80;;;;;;;21.20;54.56;101374.69;4970690;28;20062;-77
2023/10/06 07:28:32;;;;;;;4.68;0.90;;;;;;;21.16;54.63;101377.34;4971842;28;20053;-77
2023/10/06 07:31:00;;;;;;;2.13;0.63;;;;;;;21.12;54.69;101373.84;4967543;28;20129;-77
2023/10/06 07:33:29;;;;;;;5.93;0.70;;;;;;;21.11;55.24;101378.22;4966977;28;20050;-78
2023/10/06 07:35:58;;;;;;;2.83;0.80;;;;;;;21.11;54.84;101382.63;4967948;28;20058;-77
2023/10/06 07:38:27;;;;;;;4.22;0.98;;;;;;;21.09;55.01;101373.84;4970857;28;20570;-77
2023/10/06 07:40:58;;;;;;;3.53;0.82;;;;;;;21.03;54.94;101372.13;4970221;28;20090;-79
2023/10/06 07:43:28;;;;;;;2.43;0.80;;;;;;;21.02;54.70;101380.88;4961273;28;20173;-79
2023/10/06 07:46:07;;;;;;;1.00;0.60;;;;;;;20.99;54.86;101366.88;4968055;28;20524;-76
2023/10/06 07:48:39;;;;;;;5.30;0.88;;;;;;;20.97;55.13;101372.16;4964861;28;20051;-78
2023/10/06 07:51:08;;;;;;;1.92;0.70;;;;;;;20.96;55.20;101377.41;4964356;28;20495;-77
2023/10/06 07:53:38;;;;;;;2.28;0.75;;;;;;;20.95;55.18;101373.91;4965722;28;20082;-77
2023/10/06 07:56:11;;;;;;;5.75;0.90;;;;;;;20.89;54.94;101360.75;4969952;28;20086;-78
2023/10/06 07:58:41;;;;;;;2.28;0.70;;;;;;;20.91;54.92;101367.78;4968255;28;20059;-79
2023/10/06 08:01:12;;;;;;;4.05;0.63;;;;;;;20.86;55.77;101366.03;4971444;28;20069;-77
2023/10/06 08:03:41;;;;;;;4.60;0.95;;;;;;;20.83;56.45;101381.84;4968868;28;20043;-79
2023/10/06 08:06:11;;;;;;;1.20;0.60;;;;;;;20.83;56.14;101381.84;4966862;28;20057;-78
2023/10/06 08:08:40;;;;;;;3.28;0.82;;;;;;;20.80;55.84;101377.47;4965609;28;20058;-78
2023/10/06 08:11:13;;;;;;;2.72;0.85;;;;;;;20.79;55.79;101380.09;4965037;28;20109;-77
2023/10/06 08:13:42;;;;;;;;;;;;;;;20.80;55.34;101387.09;4967677;28;20093;-77
2023/10/06 08:16:13;;;;;;;2.03;0.77;;;;;;;20.78;55.37;101392.38;4966121;28;19928;-77
2023/10/06 08:18:42;;;;;;;1.95;0.73;;;;;;;20.78;56.65;101384.50;4962766;28;20055;-76
2023/10/06 08:21:11;;;;;;;2.60;0.73;;;;;;;20.75;56.43;101373.97;4970197;28;20050;-77
2023/10/06 08:23:40;;;;;;;6.28;0.77;;;;;;;20.70;56.26;101379.22;4969827;28;20062;-77
2023/10/06 08:26:14;;;;;;;1.45;0.65;;;;;;;20.67;56.60;101388.91;4968140;28;20043;-75
2023/10/06 08:28:45;;;;;;;4.45;0.88;;;;;;;20.60;56.37;101380.13;4971051;28;20145;-78
2023/10/06 08:31:17;;;;;;;2.70;0.80;;;;;;;20.55;56.08;101384.50;4966340;28;20499;-77
2023/10/06 08:33:47;;;;;;;2.85;0.85;;;;;;;20.52;56.10;101384.50;4969196;28;20058;-77
2023/10/06 08:36:16;;;;;;;1.08;0.75;;;;;;;20.45;56.28;101385.38;4965356;28;20059;-77
2023/10/06 08:38:46;;;;;;;2.80;0.70;;;;;;;20.43;56.49;101384.50;4966313;28;20471;-77
2023/10/06 08:41:23;;;;;;;2.10;0.70;;;;;;;20.39;56.78;101385.41;4966937;28;20510;-78
2023/10/06 08:43:57;;;;;;;1.33;0.70;;;;;;;20.35;57.25;101389.78;4967822;28;20058;-77
2023/10/06 08:46:26;;;;;;;1.50;0.90;;;;;;;20.32;56.98;101381.91;4963933;28;20133;-77
2023/10/06 08:48:58;;;;;;;2.75;0.77;;;;;;;20.26;57.40;101384.53;4965922;28;20145;-78
2023/10/06 08:51:28;;;;;;;1.90;0.83;;;;;;;20.19;57.54;101380.16;4967187;28;20082;-77
2023/10/06 08:53:59;;;;;;;3.67;0.75;;;;;;;20.15;57.56;101391.53;4963664;28;20042;-78
2023/10/06 08:56:33;;;;;;;2.90;0.75;;;;;;;20.11;58.08;101390.66;4965588;28;20170;-77
2023/10/06 08:59:02;;;;;;;2.40;0.98;;;;;;;20.06;57.99;101385.38;4965751;28;20070;-78
2023/10/06 09:01:32;;;;;;;1.02;0.70;;;;;;;20.06;57.49;101392.41;4972741;28;20050;-78
2023/10/06 09:04:05;;;;;;;1.42;1.02;;;;;;;20.05;57.46;101403.81;4964284;28;20150;-78
2023/10/06 09:06:33;;;;;;;1.80;0.75;;;;;;;20.01;58.52;101400.28;4959928;28;20050;-77
2023/10/06 09:09:02;;;;;;;1.15;0.65;;;;;;;19.98;58.44;101404.69;4959990;28;20047;-76
2023/10/06 09:11:42;;;;;;;3.72;0.80;;;;;;;19.96;58.39;101404.66;4965686;28;20059;-78
2023/10/06 09:14:11;;;;;;;1.52;0.80;;;;;;;19.94;58.57;101400.28;4969655;28;20050;-78
2023/10/06 09:17:01;;;;;;;3.92;0.85;;;;;;;19.90;59.28;101412.53;4963152;28;20065;-78
2023/10/06 09:19:53;;;;;;;1.88;0.80;;;;;;;19.85;59.36;101407.25;4971609;28;20061;-78
2023/10/06 09:22:28;;;;;;;6.50;1.00;;;;;;;19.78;59.43;101396.75;4962725;28;20576;-78
2023/10/06 09:25:04;;;;;;;1.10;0.60;;;;;;;19.82;59.79;101403.78;4968420;28;20046;-77
2023/10/06 09:27:41;;;;;;;1.30;0.60;;;;;;;19.79;59.27;101409.91;4966608;28;20050;-78
2023/10/06 09:30:12;;;;;;;1.17;0.60;;;;;;;19.79;59.30;101409.00;4966698;28;20051;-78
2023/10/06 09:32:40;;;;;;;2.17;0.90;;;;;;;19.78;59.20;101408.13;4970037;28;20134;-75
2023/10/06 09:35:22;;;;;;;3.72;0.70;;;;;;;19.76;59.55;101412.50;4965148;28;20052;-77
2023/10/06 09:37:54;;;;;;;1.98;0.82;;;;;;;19.75;59.61;101420.41;4967126;28;20059;-78
2023/10/06 09:40:23;;;;;;;1.10;0.75;;;;;;;19.73;59.82;101407.25;4966050;28;20157;-77
2023/10/06 09:42:56;;;;;;;3.20;0.82;;;;;;;19.73;59.76;101414.25;4968878;28;20128;-77
2023/10/06 09:45:29;;;;;;;3.67;0.80;;;;;;;19.70;59.98;101408.97;4967012;28;20078;-77
2023/10/06 09:48:02;;;;;;;1.83;0.60;;;;;;;19.70;59.78;101411.59;4961807;28;20054;-77
2023/10/06 09:50:31;;;;;;;2.30;0.65;;;;;;;19.66;60.52;101402.84;4964891;28;20069;-78
2023/10/06 09:53:04;;;;;;;3.10;0.70;;;;;;;19.63;60.89;101395.84;4970744;28;20496;-76
2023/10/06 09:55:35;;;;;;;1.23;0.60;;;;;;;19.62;60.67;101401.06;4963465;28;20042;-77
2023/10/06 09:58:07;;;;;;;2.80;0.80;;;;;;;19.58;61.25;101394.06;4965195;28;20050;-77
2023/10/06 10:00:41;;;;;;;2.55;0.82;;;;;;;19.57;61.79;101394.94;4967715;28;20635;-77
2023/10/06 10:03:12;;;;;;;1.08;0.60;;;;;;;19.52;61.24;101394.94;4961482;28;20047;-77
2023/10/06 10:05:41;;;;;;;3.97;0.90;;;;;;;19.52;61.34;101399.31;4969432;28;20096;-76
2023/10/06 10:08:10;;;;;;;2.60;0.82;;;;;;;19.51;61.06;101392.28;4966340;28;20065;-77
2023/10/06 10:10:44;;;;;;;2.25;0.70;;;;;;;19.49;62.23;101394.91;4971998;28;20515;-76
2023/10/06 10:13:49;;;;;;;2.03;0.90;;;;;;;19.44;62.58;101388.75;4963611;28;20070;-77
2023/10/06 10:16:36;;;;;;;2.33;1.20;;;;;;;19.39;62.21;101383.50;4966074;28;20047;-76
2023/10/06 10:19:10;;;;;;;5.40;0.90;;;;;;;19.36;63.69;101383.50;4967013;28;20065;-76
2023/10/06 10:21:41;;;;;;;4.25;0.90;;;;;;;19.30;63.62;101375.59;4962150;28;20051;-76
2023/10/06 10:24:21;;;;;;;1.17;0.75;;;;;;;19.30;62.94;101378.22;4963599;28;20043;-78
2023/10/06 10:26:51;;;;;;;4.18;0.88;;;;;;;19.26;63.27;101381.69;4956769;28;20540;-77
2023/10/06 10:29:34;;;;;;;1.50;0.77;;;;;;;19.19;64.88;101380.78;4966995;28;20049;-78
2023/10/06 10:32:12;;;;;;;4.85;1.00;;;;;;;19.17;64.26;101377.31;4963223;28;20047;-78
2023/10/06 10:35:12;;;;;;;3.78;0.80;;;;;;;19.14;64.00;101382.53;4963211;28;20050;-77
2023/10/06 10:37:59;;;;;;;1.65;0.93;;;;;;;19.11;64.20;101386.91;4963119;28;20057;-76
2023/10/06 10:40:31;;;;;;;2.10;1.10;;;;;;;19.10;63.70;101374.66;4962751;28;20051;-77
2023/10/06 10:43:06;;;;;;;2.20;0.75;;;;;;;19.11;63.74;101381.66;4963064;28;20057;-77
2023/10/06 10:45:43;;;;;;;0.85;0.63;;;;;;;19.10;63.74;101379.88;4962696;28;20051;-77
2023/10/06 10:48:13;;;;;;;3.67;1.00;;;;;;;19.10;64.22;101379.88;4966325;28;20058;-77
2023/10/06 10:51:05;;;;;;;3.38;0.70;;;;;;;19.04;63.81;101386.88;4963339;28;20129;-76
2023/10/06 10:53:36;;;;;;;4.80;1.20;;;;;;;19.02;63.57;101382.50;4966254;28;20070;-75
2023/10/06 10:56:06;;;;;;;1.73;0.77;;;;;;;19.00;63.93;101379.84;4968347;28;20054;-77
2023/10/06 10:58:56;;;;;;;2.80;0.77;;;;;;;18.99;63.89;101378.09;4963769;28;20062;-77
2023/10/06 11:01:35;;;;;;;1.15;0.70;;;;;;;19.00;63.50;101374.59;4969086;28;21053;-77
2023/10/06 11:04:35;;;;;;;5.55;0.85;;;;;;;19.04;63.51;101375.50;4968357;28;20577;-77
2023/10/06 11:07:15;;;;;;;4.80;1.08;;;;;;;19.02;63.48;101370.25;4960627;28;20055;-77
2023/10/06 11:09:48;;;;;;;1.55;0.70;;;;;;;19.00;64.17;101371.97;4963275;28;20065;-77
2023/10/06 11:12:25;;;;;;;1.70;0.80;;;;;;;18.95;63.47;101365.84;4965104;28;20063;-77
2023/10/06 11:14:54;;;;;;;2.35;0.60;;;;;;;18.99;63.11;101374.63;4965696;28;20066;-77
2023/10/06 11:17:29;;;;;;;0.70;0.50;;;;;;;18.99;63.42;101372.00;4967865;28;20125;-77
2023/10/06 11:20:04;;;;;;;0.47;0.40;;;;;;;18.96;63.76;101367.59;4967273;28;20519;-76
2023/10/06 11:22:41;;;;;;;2.70;0.65;;;;;;;18.90;64.01;101370.19;4960266;28;20069;-77
2023/10/06 11:25:10;;;;;;;2.03;0.80;;;;;;;18.90;63.98;101378.06;4968565;28;20054;-77
2023/10/06 11:27:39;;;;;;;2.65;0.60;;;;;;;18.90;63.05;101370.19;4964675;28;20106;-76
2023/10/06 11:30:15;;;;;;;2.80;0.77;;;;;;;18.89;64.15;101364.94;4963376;28;20049;-77
2023/10/06 11:32:45;;;;;;;1.90;0.60;;;;;;;18.90;64.02;101367.56;4968548;28;20051;-76
2023/10/06 11:35:14;;;;;;;1.05;0.45;;;;;;;18.91;64.33;101368.44;4969466;28;20066;-77
2023/10/06 11:37:43;;;;;;;0.70;0.50;;;;;;;18.89;63.95;101365.81;4967658;28;20142;-77
2023/10/06 11:40:13;;;;;;;0.95;0.73;;;;;;;18.87;64.37;101362.28;4967621;28;20063;-77
2023/10/06 11:42:44;;;;;;;2.28;0.70;;;;;;;18.87;64.30;101358.81;4966714;28;20059;-76
2023/10/06 11:45:27;;;;;;;1.37;0.73;;;;;;;18.87;64.16;101356.19;4967530;28;20073;-77
2023/10/06 11:47:58;;;;;;;3.33;0.75;;;;;;;18.79;66.33;101343.91;4965847;28;20051;-76
2023/10/06 11:50:31;;;;;;;1.88;0.55;;;;;;;18.84;65.97;101349.19;4961861;28;20065;-78
2023/10/06 11:53:01;;;;;;;3.35;0.73;;;;;;;18.82;64.79;101359.66;4969495;28;20312;-77
2023/10/06 11:55:34;;;;;;;2.67;0.65;;;;;;;18.78;65.39;101346.53;4968909;28;20046;-77
2023/10/06 11:58:09;;;;;;;2.45;0.65;;;;;;;18.82;64.93;101340.44;4969187;28;20054;-76
2023/10/06 12:00:40;;;;;;;3.22;0.73;;;;;;;18.80;66.23;101343.03;4964705;28;20051;-77